Kimball, Tennessee
Current Conditions -  °F | °C
As of 9:53 AM on Monday 22 Dec 2014 (Local Time) from KCHA Reporting Station
Haze Haze  
Wind Chill: 49°   Ceiling: 1200
Heat Index: 49°   Visibility: 6mi
Dew Point: 44°   Wind: 0mph
Humidity: 83%   Direction: NA
Pressure: 29.99"   Gusts: NA
Location:  35.0651°N, 85.6204°W
Report Text: KCHA 221553Z 00000KT 6SM HZ BKN012 OVC020 09/07 A2999 RMK AO2 SLP155 T00940067 $
Loading
Personal Weather Stations






























Interactive Weather Map New forecast layout! Learn more

10-Day Weather Forecast

Advertisements
Track Severe Weather on mobile